sensor_id;sensor_type;location;lat;lon;timestamp;temperature;humidity
24618;DHT22;12762;51.730;5.356;2022-12-07T00:01:22;5.30;89.70
24618;DHT22;12762;51.730;5.356;2022-12-07T00:03:54;5.30;89.80
24618;DHT22;12762;51.730;5.356;2022-12-07T00:06:23;5.30;89.90
24618;DHT22;12762;51.730;5.356;2022-12-07T00:08:50;5.30;89.90
24618;DHT22;12762;51.730;5.356;2022-12-07T00:11:23;5.30;89.80
24618;DHT22;12762;51.730;5.356;2022-12-07T00:13:55;5.30;89.90
24618;DHT22;12762;51.730;5.356;2022-12-07T00:16:24;5.30;90.30
24618;DHT22;12762;51.730;5.356;2022-12-07T00:18:52;5.30;89.90
24618;DHT22;12762;51.730;5.356;2022-12-07T00:21:21;5.30;89.90
24618;DHT22;12762;51.730;5.356;2022-12-07T00:23:52;5.30;90.00
24618;DHT22;12762;51.730;5.356;2022-12-07T00:26:28;5.30;89.90
24618;DHT22;12762;51.730;5.356;2022-12-07T00:28:59;5.20;89.90
24618;DHT22;12762;51.730;5.356;2022-12-07T00:31:29;5.20;89.90
24618;DHT22;12762;51.730;5.356;2022-12-07T00:33:57;5.20;89.90
24618;DHT22;12762;51.730;5.356;2022-12-07T00:36:25;5.20;89.90
24618;DHT22;12762;51.730;5.356;2022-12-07T00:38:58;5.20;89.90
24618;DHT22;12762;51.730;5.356;2022-12-07T00:41:27;5.10;89.80
24618;DHT22;12762;51.730;5.356;2022-12-07T00:43:55;5.10;89.80
24618;DHT22;12762;51.730;5.356;2022-12-07T00:46:22;5.10;89.80
24618;DHT22;12762;51.730;5.356;2022-12-07T00:48:52;5.10;90.00
24618;DHT22;12762;51.730;5.356;2022-12-07T00:51:22;5.10;90.00
24618;DHT22;12762;51.730;5.356;2022-12-07T00:53:49;5.00;89.90
24618;DHT22;12762;51.730;5.356;2022-12-07T00:56:21;5.10;90.00
24618;DHT22;12762;51.730;5.356;2022-12-07T01:01:24;5.00;90.00
24618;DHT22;12762;51.730;5.356;2022-12-07T01:03:51;5.00;90.10
24618;DHT22;12762;51.730;5.356;2022-12-07T01:06:20;5.00;90.10
24618;DHT22;12762;51.730;5.356;2022-12-07T01:08:50;5.00;90.10
24618;DHT22;12762;51.730;5.356;2022-12-07T01:11:20;5.10;90.10
24618;DHT22;12762;51.730;5.356;2022-12-07T01:13:50;5.10;90.20
24618;DHT22;12762;51.730;5.356;2022-12-07T01:16:18;5.10;90.10
24618;DHT22;12762;51.730;5.356;2022-12-07T01:18:47;5.20;90.20
24618;DHT22;12762;51.730;5.356;2022-12-07T01:21:18;5.20;90.20
24618;DHT22;12762;51.730;5.356;2022-12-07T01:23:45;5.20;90.20
24618;DHT22;12762;51.730;5.356;2022-12-07T01:26:15;5.20;90.10
24618;DHT22;12762;51.730;5.356;2022-12-07T01:28:43;5.20;90.10
24618;DHT22;12762;51.730;5.356;2022-12-07T01:31:13;5.20;90.10
24618;DHT22;12762;51.730;5.356;2022-12-07T01:33:47;5.30;90.20
24618;DHT22;12762;51.730;5.356;2022-12-07T01:36:19;5.30;90.20
24618;DHT22;12762;51.730;5.356;2022-12-07T01:38:48;5.30;90.10
24618;DHT22;12762;51.730;5.356;2022-12-07T01:41:16;5.20;90.10
24618;DHT22;12762;51.730;5.356;2022-12-07T01:44:20;5.30;90.10
24618;DHT22;12762;51.730;5.356;2022-12-07T01:46:52;5.20;90.10
24618;DHT22;12762;51.730;5.356;2022-12-07T01:49:35;5.20;90.10
24618;DHT22;12762;51.730;5.356;2022-12-07T01:52:15;5.20;90.10
24618;DHT22;12762;51.730;5.356;2022-12-07T01:54:48;5.20;90.10
24618;DHT22;12762;51.730;5.356;2022-12-07T01:57:16;5.10;90.00
24618;DHT22;12762;51.730;5.356;2022-12-07T01:59:53;5.10;90.00
24618;DHT22;12762;51.730;5.356;2022-12-07T02:02:27;5.10;90.10
24618;DHT22;12762;51.730;5.356;2022-12-07T02:04:57;5.00;90.10
24618;DHT22;12762;51.730;5.356;2022-12-07T02:07:25;5.00;90.10
24618;DHT22;12762;51.730;5.356;2022-12-07T02:09:53;5.00;90.10
24618;DHT22;12762;51.730;5.356;2022-12-07T02:12:21;5.00;90.10
24618;DHT22;12762;51.730;5.356;2022-12-07T02:14:49;5.00;90.20
24618;DHT22;12762;51.730;5.356;2022-12-07T02:17:34;4.90;90.10
24618;DHT22;12762;51.730;5.356;2022-12-07T02:20:31;4.90;90.10
24618;DHT22;12762;51.730;5.356;2022-12-07T02:29:11;4.80;90.10
24618;DHT22;12762;51.730;5.356;2022-12-07T02:31:50;4.80;90.10
24618;DHT22;12762;51.730;5.356;2022-12-07T02:34:20;4.80;90.10
24618;DHT22;12762;51.730;5.356;2022-12-07T02:36:55;4.70;90.10
24618;DHT22;12762;51.730;5.356;2022-12-07T02:39:34;4.80;90.20
24618;DHT22;12762;51.730;5.356;2022-12-07T02:42:13;4.70;90.20
24618;DHT22;12762;51.730;5.356;2022-12-07T02:44:41;4.70;90.20
24618;DHT22;12762;51.730;5.356;2022-12-07T02:47:11;4.70;90.20
24618;DHT22;12762;51.730;5.356;2022-12-07T02:49:39;4.70;90.20
24618;DHT22;12762;51.730;5.356;2022-12-07T02:52:10;4.70;90.20
24618;DHT22;12762;51.730;5.356;2022-12-07T02:54:36;4.70;90.20
24618;DHT22;12762;51.730;5.356;2022-12-07T03:22:10;4.90;90.30
24618;DHT22;12762;51.730;5.356;2022-12-07T03:27:31;5.00;90.30
24618;DHT22;12762;51.730;5.356;2022-12-07T03:30:06;5.00;90.40
24618;DHT22;12762;51.730;5.356;2022-12-07T03:32:41;5.00;90.30
24618;DHT22;12762;51.730;5.356;2022-12-07T03:35:27;5.10;90.30
24618;DHT22;12762;51.730;5.356;2022-12-07T03:38:07;5.10;90.30
24618;DHT22;12762;51.730;5.356;2022-12-07T03:40:45;5.10;90.30
24618;DHT22;12762;51.730;5.356;2022-12-07T03:43:17;5.10;90.30
24618;DHT22;12762;51.730;5.356;2022-12-07T03:48:37;5.20;90.40
24618;DHT22;12762;51.730;5.356;2022-12-07T03:53:59;5.20;90.30
24618;DHT22;12762;51.730;5.356;2022-12-07T03:56:29;5.20;90.30
24618;DHT22;12762;51.730;5.356;2022-12-07T03:58:56;5.20;90.30
24618;DHT22;12762;51.730;5.356;2022-12-07T04:01:24;5.20;90.30
24618;DHT22;12762;51.730;5.356;2022-12-07T04:03:51;5.10;90.30
24618;DHT22;12762;51.730;5.356;2022-12-07T04:06:18;5.10;90.30
24618;DHT22;12762;51.730;5.356;2022-12-07T04:08:45;5.10;90.30
24618;DHT22;12762;51.730;5.356;2022-12-07T04:11:12;5.10;90.30
24618;DHT22;12762;51.730;5.356;2022-12-07T04:13:39;5.10;90.30
24618;DHT22;12762;51.730;5.356;2022-12-07T04:16:24;5.20;90.40
24618;DHT22;12762;51.730;5.356;2022-12-07T04:18:51;5.20;90.40
24618;DHT22;12762;51.730;5.356;2022-12-07T04:21:18;5.20;90.40
24618;DHT22;12762;51.730;5.356;2022-12-07T04:23:45;5.10;90.30
24618;DHT22;12762;51.730;5.356;2022-12-07T04:26:12;5.10;90.30
24618;DHT22;12762;51.730;5.356;2022-12-07T04:28:38;5.10;90.30
24618;DHT22;12762;51.730;5.356;2022-12-07T04:31:05;5.10;90.30
24618;DHT22;12762;51.730;5.356;2022-12-07T04:33:32;5.00;90.30
24618;DHT22;12762;51.730;5.356;2022-12-07T04:35:59;5.00;90.30
24618;DHT22;12762;51.730;5.356;2022-12-07T04:38:26;5.00;90.30
24618;DHT22;12762;51.730;5.356;2022-12-07T04:40:53;5.00;90.30
24618;DHT22;12762;51.730;5.356;2022-12-07T04:43:22;5.00;90.30
24618;DHT22;12762;51.730;5.356;2022-12-07T04:45:49;4.90;90.30
24618;DHT22;12762;51.730;5.356;2022-12-07T04:48:17;4.90;90.30
24618;DHT22;12762;51.730;5.356;2022-12-07T04:50:49;4.90;90.40
24618;DHT22;12762;51.730;5.356;2022-12-07T04:53:16;4.90;90.40
24618;DHT22;12762;51.730;5.356;2022-12-07T04:55:44;4.80;90.30
24618;DHT22;12762;51.730;5.356;2022-12-07T04:58:11;4.80;90.40
24618;DHT22;12762;51.730;5.356;2022-12-07T05:00:39;4.80;90.50
24618;DHT22;12762;51.730;5.356;2022-12-07T05:03:06;4.80;90.50
24618;DHT22;12762;51.730;5.356;2022-12-07T05:05:33;4.80;90.50
24618;DHT22;12762;51.730;5.356;2022-12-07T05:08:00;4.80;90.50
24618;DHT22;12762;51.730;5.356;2022-12-07T05:10:26;4.80;90.50
24618;DHT22;12762;51.730;5.356;2022-12-07T05:12:53;4.80;90.50
24618;DHT22;12762;51.730;5.356;2022-12-07T05:15:20;4.80;90.50
24618;DHT22;12762;51.730;5.356;2022-12-07T05:17:47;4.80;90.40
24618;DHT22;12762;51.730;5.356;2022-12-07T05:20:14;4.80;90.40
24618;DHT22;12762;51.730;5.356;2022-12-07T05:22:40;4.80;90.40
24618;DHT22;12762;51.730;5.356;2022-12-07T05:25:08;4.80;90.50
24618;DHT22;12762;51.730;5.356;2022-12-07T05:27:37;4.80;90.50
24618;DHT22;12762;51.730;5.356;2022-12-07T05:30:07;4.80;90.50
24618;DHT22;12762;51.730;5.356;2022-12-07T05:32:34;4.80;90.50
24618;DHT22;12762;51.730;5.356;2022-12-07T05:35:01;4.80;90.50
24618;DHT22;12762;51.730;5.356;2022-12-07T05:37:28;4.70;90.40
24618;DHT22;12762;51.730;5.356;2022-12-07T05:39:55;4.70;90.40
24618;DHT22;12762;51.730;5.356;2022-12-07T05:42:25;4.70;90.40
24618;DHT22;12762;51.730;5.356;2022-12-07T05:44:51;4.70;90.40
24618;DHT22;12762;51.730;5.356;2022-12-07T05:47:18;4.70;90.40
24618;DHT22;12762;51.730;5.356;2022-12-07T05:49:45;4.60;90.40
24618;DHT22;12762;51.730;5.356;2022-12-07T05:52:12;4.60;90.40
24618;DHT22;12762;51.730;5.356;2022-12-07T05:54:39;4.60;90.40
24618;DHT22;12762;51.730;5.356;2022-12-07T05:57:06;4.60;90.40
24618;DHT22;12762;51.730;5.356;2022-12-07T05:59:32;4.50;90.40
24618;DHT22;12762;51.730;5.356;2022-12-07T06:02:02;4.50;90.40
24618;DHT22;12762;51.730;5.356;2022-12-07T06:04:43;4.50;90.50
24618;DHT22;12762;51.730;5.356;2022-12-07T06:07:12;4.40;90.50
24618;DHT22;12762;51.730;5.356;2022-12-07T06:09:39;4.40;90.50
24618;DHT22;12762;51.730;5.356;2022-12-07T06:12:10;4.50;90.60
24618;DHT22;12762;51.730;5.356;2022-12-07T06:14:55;4.50;90.60
24618;DHT22;12762;51.730;5.356;2022-12-07T06:17:22;4.50;90.60
24618;DHT22;12762;51.730;5.356;2022-12-07T06:19:49;4.60;90.60
24618;DHT22;12762;51.730;5.356;2022-12-07T06:22:16;4.60;90.60
24618;DHT22;12762;51.730;5.356;2022-12-07T06:24:44;4.60;90.70
24618;DHT22;12762;51.730;5.356;2022-12-07T06:27:11;4.60;90.50
24618;DHT22;12762;51.730;5.356;2022-12-07T06:29:38;4.60;90.50
24618;DHT22;12762;51.730;5.356;2022-12-07T06:32:05;4.60;90.50
24618;DHT22;12762;51.730;5.356;2022-12-07T06:34:32;4.60;90.40
24618;DHT22;12762;51.730;5.356;2022-12-07T06:36:59;4.60;90.50
24618;DHT22;12762;51.730;5.356;2022-12-07T06:39:27;4.60;90.40
24618;DHT22;12762;51.730;5.356;2022-12-07T06:41:57;4.70;90.50
24618;DHT22;12762;51.730;5.356;2022-12-07T06:44:24;4.70;90.60
24618;DHT22;12762;51.730;5.356;2022-12-07T06:46:51;4.70;90.60
24618;DHT22;12762;51.730;5.356;2022-12-07T06:49:38;4.70;90.60
24618;DHT22;12762;51.730;5.356;2022-12-07T06:52:05;4.80;90.60
24618;DHT22;12762;51.730;5.356;2022-12-07T06:54:32;4.80;90.60
24618;DHT22;12762;51.730;5.356;2022-12-07T06:56:59;4.80;90.60
24618;DHT22;12762;51.730;5.356;2022-12-07T06:59:26;4.80;90.50
24618;DHT22;12762;51.730;5.356;2022-12-07T07:01:55;4.80;90.50
24618;DHT22;12762;51.730;5.356;2022-12-07T07:04:22;4.80;90.60
24618;DHT22;12762;51.730;5.356;2022-12-07T07:06:50;4.80;90.50
24618;DHT22;12762;51.730;5.356;2022-12-07T07:09:25;4.80;90.50
24618;DHT22;12762;51.730;5.356;2022-12-07T07:11:52;4.80;90.50
24618;DHT22;12762;51.730;5.356;2022-12-07T07:14:19;4.80;90.50
24618;DHT22;12762;51.730;5.356;2022-12-07T07:16:47;4.80;90.50
24618;DHT22;12762;51.730;5.356;2022-12-07T07:19:14;4.80;90.50
24618;DHT22;12762;51.730;5.356;2022-12-07T07:21:41;4.80;90.50
24618;DHT22;12762;51.730;5.356;2022-12-07T07:24:08;4.80;90.50
24618;DHT22;12762;51.730;5.356;2022-12-07T07:26:35;4.80;90.50
24618;DHT22;12762;51.730;5.356;2022-12-07T07:29:01;4.80;90.50
24618;DHT22;12762;51.730;5.356;2022-12-07T07:31:31;4.80;90.50
24618;DHT22;12762;51.730;5.356;2022-12-07T07:34:01;4.80;90.60
24618;DHT22;12762;51.730;5.356;2022-12-07T07:36:28;4.80;90.50
24618;DHT22;12762;51.730;5.356;2022-12-07T07:38:55;4.80;90.50
24618;DHT22;12762;51.730;5.356;2022-12-07T07:41:22;4.80;90.50
24618;DHT22;12762;51.730;5.356;2022-12-07T07:43:51;4.80;90.50
24618;DHT22;12762;51.730;5.356;2022-12-07T07:46:18;4.80;90.60
24618;DHT22;12762;51.730;5.356;2022-12-07T07:48:45;4.80;90.60
24618;DHT22;12762;51.730;5.356;2022-12-07T07:51:14;4.80;90.60
24618;DHT22;12762;51.730;5.356;2022-12-07T07:53:41;4.80;90.60
24618;DHT22;12762;51.730;5.356;2022-12-07T07:56:08;4.80;90.60
24618;DHT22;12762;51.730;5.356;2022-12-07T07:58:35;4.80;90.60
24618;DHT22;12762;51.730;5.356;2022-12-07T08:01:06;4.80;90.70
24618;DHT22;12762;51.730;5.356;2022-12-07T08:03:34;4.80;90.60
24618;DHT22;12762;51.730;5.356;2022-12-07T08:06:05;4.80;90.60
24618;DHT22;12762;51.730;5.356;2022-12-07T08:08:31;4.80;90.60
24618;DHT22;12762;51.730;5.356;2022-12-07T08:10:58;4.90;90.70
24618;DHT22;12762;51.730;5.356;2022-12-07T08:13:28;4.90;90.70
24618;DHT22;12762;51.730;5.356;2022-12-07T08:15:57;5.00;90.60
24618;DHT22;12762;51.730;5.356;2022-12-07T08:18:24;5.00;90.70
24618;DHT22;12762;51.730;5.356;2022-12-07T08:20:51;5.00;90.60
24618;DHT22;12762;51.730;5.356;2022-12-07T08:23:18;5.00;90.60
24618;DHT22;12762;51.730;5.356;2022-12-07T08:25:45;5.10;90.60
24618;DHT22;12762;51.730;5.356;2022-12-07T08:28:11;5.10;90.60
24618;DHT22;12762;51.730;5.356;2022-12-07T08:30:38;5.00;90.50
24618;DHT22;12762;51.730;5.356;2022-12-07T08:33:05;5.00;90.50
24618;DHT22;12762;51.730;5.356;2022-12-07T08:35:35;5.00;90.50
24618;DHT22;12762;51.730;5.356;2022-12-07T08:38:03;5.00;90.40
24618;DHT22;12762;51.730;5.356;2022-12-07T08:40:30;5.00;90.50
24618;DHT22;12762;51.730;5.356;2022-12-07T08:42:57;5.00;90.50
24618;DHT22;12762;51.730;5.356;2022-12-07T08:45:24;5.00;90.50
24618;DHT22;12762;51.730;5.356;2022-12-07T08:48:06;5.00;90.50
24618;DHT22;12762;51.730;5.356;2022-12-07T08:50:36;5.00;90.50
24618;DHT22;12762;51.730;5.356;2022-12-07T08:53:03;5.00;90.50
24618;DHT22;12762;51.730;5.356;2022-12-07T08:55:31;5.00;90.50
24618;DHT22;12762;51.730;5.356;2022-12-07T08:58:00;5.00;90.90
24618;DHT22;12762;51.730;5.356;2022-12-07T09:00:27;5.00;90.50
24618;DHT22;12762;51.730;5.356;2022-12-07T09:02:54;5.20;90.70
24618;DHT22;12762;51.730;5.356;2022-12-07T09:05:21;5.60;90.90
24618;DHT22;12762;51.730;5.356;2022-12-07T09:07:50;5.90;90.80
24618;DHT22;12762;51.730;5.356;2022-12-07T09:10:18;6.00;90.40
24618;DHT22;12762;51.730;5.356;2022-12-07T09:12:45;6.10;90.20
24618;DHT22;12762;51.730;5.356;2022-12-07T09:15:11;6.10;90.10
24618;DHT22;12762;51.730;5.356;2022-12-07T09:17:41;6.10;90.00
24618;DHT22;12762;51.730;5.356;2022-12-07T09:20:08;6.10;90.00
24618;DHT22;12762;51.730;5.356;2022-12-07T09:22:35;6.10;89.90
24618;DHT22;12762;51.730;5.356;2022-12-07T09:25:03;6.20;90.00
24618;DHT22;12762;51.730;5.356;2022-12-07T09:27:30;6.20;90.00
24618;DHT22;12762;51.730;5.356;2022-12-07T09:29:57;6.20;90.00
24618;DHT22;12762;51.730;5.356;2022-12-07T09:32:27;6.30;90.10
24618;DHT22;12762;51.730;5.356;2022-12-07T09:34:54;6.30;90.10
24618;DHT22;12762;51.730;5.356;2022-12-07T09:37:22;6.40;90.20
24618;DHT22;12762;51.730;5.356;2022-12-07T09:39:48;6.50;90.20
24618;DHT22;12762;51.730;5.356;2022-12-07T09:42:38;6.60;90.30
24618;DHT22;12762;51.730;5.356;2022-12-07T09:45:11;6.70;90.40
24618;DHT22;12762;51.730;5.356;2022-12-07T09:47:39;6.90;90.40
24618;DHT22;12762;51.730;5.356;2022-12-07T09:50:13;7.10;90.50
24618;DHT22;12762;51.730;5.356;2022-12-07T09:52:41;7.20;90.40
24618;DHT22;12762;51.730;5.356;2022-12-07T09:55:14;7.40;90.30
24618;DHT22;12762;51.730;5.356;2022-12-07T09:57:41;7.50;90.20
24618;DHT22;12762;51.730;5.356;2022-12-07T10:00:17;7.50;90.10
24618;DHT22;12762;51.730;5.356;2022-12-07T10:02:50;7.50;89.90
24618;DHT22;12762;51.730;5.356;2022-12-07T10:05:25;7.40;89.80
24618;DHT22;12762;51.730;5.356;2022-12-07T10:07:54;7.50;90.00
24618;DHT22;12762;51.730;5.356;2022-12-07T10:10:35;7.60;90.00
24618;DHT22;12762;51.730;5.356;2022-12-07T10:13:11;7.70;90.10
24618;DHT22;12762;51.730;5.356;2022-12-07T10:21:44;7.90;89.30
24618;DHT22;12762;51.730;5.356;2022-12-07T10:24:15;7.90;89.10
24618;DHT22;12762;51.730;5.356;2022-12-07T10:29:33;7.70;88.70
24618;DHT22;12762;51.730;5.356;2022-12-07T10:32:05;7.60;88.80
24618;DHT22;12762;51.730;5.356;2022-12-07T10:34:36;7.60;89.10
24618;DHT22;12762;51.730;5.356;2022-12-07T10:39:55;7.70;89.40
24618;DHT22;12762;51.730;5.356;2022-12-07T10:42:27;7.90;89.80
24618;DHT22;12762;51.730;5.356;2022-12-07T10:45:14;8.00;89.70
24618;DHT22;12762;51.730;5.356;2022-12-07T10:48:23;8.10;89.30
24618;DHT22;12762;51.730;5.356;2022-12-07T10:51:16;8.20;89.20
24618;DHT22;12762;51.730;5.356;2022-12-07T10:56:58;8.30;88.90
24618;DHT22;12762;51.730;5.356;2022-12-07T11:08:19;8.50;88.10
24618;DHT22;12762;51.730;5.356;2022-12-07T11:11:04;8.50;88.00
24618;DHT22;12762;51.730;5.356;2022-12-07T11:19:27;8.30;87.50
24618;DHT22;12762;51.730;5.356;2022-12-07T11:22:06;8.20;87.50
24618;DHT22;12762;51.730;5.356;2022-12-07T11:28:03;8.00;87.30
24618;DHT22;12762;51.730;5.356;2022-12-07T11:30:42;8.00;87.50
24618;DHT22;12762;51.730;5.356;2022-12-07T11:38:54;7.90;88.10
24618;DHT22;12762;51.730;5.356;2022-12-07T11:41:29;7.90;88.10
24618;DHT22;12762;51.730;5.356;2022-12-07T11:51:53;8.20;88.20
24618;DHT22;12762;51.730;5.356;2022-12-07T11:54:29;8.30;88.10
24618;DHT22;12762;51.730;5.356;2022-12-07T11:57:03;8.30;87.80
24618;DHT22;12762;51.730;5.356;2022-12-07T11:59:36;8.40;87.70
24618;DHT22;12762;51.730;5.356;2022-12-07T12:02:16;8.50;87.70
24618;DHT22;12762;51.730;5.356;2022-12-07T12:04:59;8.50;87.50
24618;DHT22;12762;51.730;5.356;2022-12-07T12:07:29;8.50;87.40
24618;DHT22;12762;51.730;5.356;2022-12-07T12:10:55;8.50;87.40
24618;DHT22;12762;51.730;5.356;2022-12-07T12:22:12;8.50;87.50
24618;DHT22;12762;51.730;5.356;2022-12-07T12:24:41;8.60;87.60
24618;DHT22;12762;51.730;5.356;2022-12-07T12:27:26;8.60;87.50
24618;DHT22;12762;51.730;5.356;2022-12-07T12:30:05;8.70;87.70
24618;DHT22;12762;51.730;5.356;2022-12-07T12:32:41;8.80;87.50
24618;DHT22;12762;51.730;5.356;2022-12-07T12:40:51;8.80;87.00
24618;DHT22;12762;51.730;5.356;2022-12-07T12:43:48;8.80;86.80
24618;DHT22;12762;51.730;5.356;2022-12-07T12:49:36;8.80;86.80
24618;DHT22;12762;51.730;5.356;2022-12-07T12:57:34;8.90;86.90
24618;DHT22;12762;51.730;5.356;2022-12-07T13:00:22;9.00;86.80
24618;DHT22;12762;51.730;5.356;2022-12-07T13:02:53;9.00;86.40
24618;DHT22;12762;51.730;5.356;2022-12-07T13:05:23;9.00;86.20
24618;DHT22;12762;51.730;5.356;2022-12-07T13:08:00;9.00;85.90
24618;DHT22;12762;51.730;5.356;2022-12-07T13:18:42;9.20;86.10
24618;DHT22;12762;51.730;5.356;2022-12-07T13:31:38;10.20;82.50
24618;DHT22;12762;51.730;5.356;2022-12-07T13:34:34;10.10;82.10
24618;DHT22;12762;51.730;5.356;2022-12-07T13:39:33;9.90;83.10
24618;DHT22;12762;51.730;5.356;2022-12-07T13:42:11;9.70;83.00
24618;DHT22;12762;51.730;5.356;2022-12-07T13:44:41;9.60;82.90
24618;DHT22;12762;51.730;5.356;2022-12-07T13:47:23;9.40;82.80
24618;DHT22;12762;51.730;5.356;2022-12-07T13:49:56;9.30;82.90
24618;DHT22;12762;51.730;5.356;2022-12-07T13:52:28;9.20;83.10
24618;DHT22;12762;51.730;5.356;2022-12-07T13:55:14;9.10;83.10
24618;DHT22;12762;51.730;5.356;2022-12-07T13:57:42;9.10;83.30
24618;DHT22;12762;51.730;5.356;2022-12-07T14:00:21;9.00;83.40
24618;DHT22;12762;51.730;5.356;2022-12-07T14:05:41;8.80;83.30
24618;DHT22;12762;51.730;5.356;2022-12-07T14:10:55;8.50;83.10
24618;DHT22;12762;51.730;5.356;2022-12-07T14:15:58;8.30;83.40
24618;DHT22;12762;51.730;5.356;2022-12-07T14:18:46;8.10;83.50
24618;DHT22;12762;51.730;5.356;2022-12-07T14:23:40;8.10;84.10
24618;DHT22;12762;51.730;5.356;2022-12-07T14:26:20;8.10;84.20
24618;DHT22;12762;51.730;5.356;2022-12-07T14:28:47;8.10;84.10
24618;DHT22;12762;51.730;5.356;2022-12-07T14:31:20;8.00;84.00
24618;DHT22;12762;51.730;5.356;2022-12-07T14:33:59;7.90;84.00
24618;DHT22;12762;51.730;5.356;2022-12-07T14:36:26;7.90;84.00
24618;DHT22;12762;51.730;5.356;2022-12-07T14:38:52;7.80;83.90
24618;DHT22;12762;51.730;5.356;2022-12-07T14:41:22;7.80;83.90
24618;DHT22;12762;51.730;5.356;2022-12-07T14:44:11;7.70;84.00
24618;DHT22;12762;51.730;5.356;2022-12-07T14:46:59;7.70;84.00
24618;DHT22;12762;51.730;5.356;2022-12-07T14:49:45;7.70;84.00
24618;DHT22;12762;51.730;5.356;2022-12-07T14:52:29;7.60;84.00
24618;DHT22;12762;51.730;5.356;2022-12-07T14:55:26;7.60;83.90
24618;DHT22;12762;51.730;5.356;2022-12-07T14:57:54;7.60;84.00
24618;DHT22;12762;51.730;5.356;2022-12-07T15:00:25;7.50;83.90
24618;DHT22;12762;51.730;5.356;2022-12-07T15:02:53;7.50;83.90
24618;DHT22;12762;51.730;5.356;2022-12-07T15:05:23;7.40;83.90
24618;DHT22;12762;51.730;5.356;2022-12-07T15:07:51;7.40;83.90
24618;DHT22;12762;51.730;5.356;2022-12-07T15:10:26;7.30;83.80
24618;DHT22;12762;51.730;5.356;2022-12-07T15:12:59;7.30;83.90
24618;DHT22;12762;51.730;5.356;2022-12-07T15:15:47;7.20;83.90
24618;DHT22;12762;51.730;5.356;2022-12-07T15:18:15;7.20;84.00
24618;DHT22;12762;51.730;5.356;2022-12-07T15:20:42;7.20;84.10
24618;DHT22;12762;51.730;5.356;2022-12-07T15:23:15;7.20;84.10
24618;DHT22;12762;51.730;5.356;2022-12-07T15:25:43;7.10;84.00
24618;DHT22;12762;51.730;5.356;2022-12-07T15:28:10;7.10;84.00
24618;DHT22;12762;51.730;5.356;2022-12-07T15:30:38;7.10;84.00
24618;DHT22;12762;51.730;5.356;2022-12-07T15:33:07;7.00;84.00
24618;DHT22;12762;51.730;5.356;2022-12-07T15:35:44;7.00;84.10
24618;DHT22;12762;51.730;5.356;2022-12-07T15:38:11;6.90;84.10
24618;DHT22;12762;51.730;5.356;2022-12-07T15:40:38;6.90;84.10
24618;DHT22;12762;51.730;5.356;2022-12-07T15:43:05;6.80;84.10
24618;DHT22;12762;51.730;5.356;2022-12-07T15:45:53;6.80;84.10
24618;DHT22;12762;51.730;5.356;2022-12-07T15:48:23;6.80;84.30
24618;DHT22;12762;51.730;5.356;2022-12-07T15:51:03;6.70;84.30
24618;DHT22;12762;51.730;5.356;2022-12-07T15:53:29;6.70;84.30
24618;DHT22;12762;51.730;5.356;2022-12-07T15:55:56;6.70;84.40
24618;DHT22;12762;51.730;5.356;2022-12-07T15:58:23;6.60;84.40
24618;DHT22;12762;51.730;5.356;2022-12-07T16:00:50;6.60;84.50
24618;DHT22;12762;51.730;5.356;2022-12-07T16:03:17;6.60;84.60
24618;DHT22;12762;51.730;5.356;2022-12-07T16:05:51;6.50;84.60
24618;DHT22;12762;51.730;5.356;2022-12-07T16:08:19;6.50;84.60
24618;DHT22;12762;51.730;5.356;2022-12-07T16:10:47;6.50;84.60
24618;DHT22;12762;51.730;5.356;2022-12-07T16:13:14;6.50;84.70
24618;DHT22;12762;51.730;5.356;2022-12-07T16:15:42;6.50;84.80
24618;DHT22;12762;51.730;5.356;2022-12-07T16:18:09;6.40;84.70
24618;DHT22;12762;51.730;5.356;2022-12-07T16:20:36;6.40;84.80
24618;DHT22;12762;51.730;5.356;2022-12-07T16:23:03;6.40;84.90
24618;DHT22;12762;51.730;5.356;2022-12-07T16:25:33;6.40;84.90
24618;DHT22;12762;51.730;5.356;2022-12-07T16:28:00;6.40;84.90
24618;DHT22;12762;51.730;5.356;2022-12-07T16:30:27;6.40;85.00
24618;DHT22;12762;51.730;5.356;2022-12-07T16:32:54;6.40;85.10
24618;DHT22;12762;51.730;5.356;2022-12-07T16:35:31;6.30;85.00
24618;DHT22;12762;51.730;5.356;2022-12-07T16:37:57;6.40;85.30
24618;DHT22;12762;51.730;5.356;2022-12-07T16:40:24;6.40;85.20
24618;DHT22;12762;51.730;5.356;2022-12-07T16:42:51;6.30;86.00
24618;DHT22;12762;51.730;5.356;2022-12-07T16:45:18;6.30;85.30
24618;DHT22;12762;51.730;5.356;2022-12-07T16:47:46;6.30;85.30
24618;DHT22;12762;51.730;5.356;2022-12-07T16:50:15;6.40;85.30
24618;DHT22;12762;51.730;5.356;2022-12-07T16:52:42;6.30;85.30
24618;DHT22;12762;51.730;5.356;2022-12-07T16:55:08;6.40;85.30
24618;DHT22;12762;51.730;5.356;2022-12-07T16:57:35;6.40;85.40
24618;DHT22;12762;51.730;5.356;2022-12-07T17:00:02;6.30;85.40
24618;DHT22;12762;51.730;5.356;2022-12-07T17:02:33;6.30;85.40
24618;DHT22;12762;51.730;5.356;2022-12-07T17:05:00;6.30;85.40
24618;DHT22;12762;51.730;5.356;2022-12-07T17:07:27;6.40;85.50
24618;DHT22;12762;51.730;5.356;2022-12-07T17:09:54;6.30;85.50
24618;DHT22;12762;51.730;5.356;2022-12-07T17:12:21;6.40;86.00
24618;DHT22;12762;51.730;5.356;2022-12-07T17:14:48;6.40;85.70
24618;DHT22;12762;51.730;5.356;2022-12-07T17:17:36;6.30;86.00
24618;DHT22;12762;51.730;5.356;2022-12-07T17:20:04;6.30;85.60
24618;DHT22;12762;51.730;5.356;2022-12-07T17:22:31;6.30;85.60
24618;DHT22;12762;51.730;5.356;2022-12-07T17:24:57;6.30;85.60
24618;DHT22;12762;51.730;5.356;2022-12-07T17:27:24;6.30;85.70
24618;DHT22;12762;51.730;5.356;2022-12-07T17:29:51;6.30;85.70
24618;DHT22;12762;51.730;5.356;2022-12-07T17:32:21;6.30;85.70
24618;DHT22;12762;51.730;5.356;2022-12-07T17:34:48;6.20;85.70
24618;DHT22;12762;51.730;5.356;2022-12-07T17:37:20;6.20;85.70
24618;DHT22;12762;51.730;5.356;2022-12-07T17:39:51;6.20;85.80
24618;DHT22;12762;51.730;5.356;2022-12-07T17:42:18;6.20;85.80
24618;DHT22;12762;51.730;5.356;2022-12-07T17:45:05;6.20;85.80
24618;DHT22;12762;51.730;5.356;2022-12-07T17:47:32;6.10;85.90
24618;DHT22;12762;51.730;5.356;2022-12-07T17:49:59;6.10;85.90
24618;DHT22;12762;51.730;5.356;2022-12-07T17:52:32;6.10;85.90
24618;DHT22;12762;51.730;5.356;2022-12-07T17:55:18;6.10;85.90
24618;DHT22;12762;51.730;5.356;2022-12-07T17:57:45;6.10;86.00
24618;DHT22;12762;51.730;5.356;2022-12-07T18:00:15;6.10;86.00
24618;DHT22;12762;51.730;5.356;2022-12-07T18:02:42;6.10;86.00
24618;DHT22;12762;51.730;5.356;2022-12-07T18:05:09;6.10;86.10
24618;DHT22;12762;51.730;5.356;2022-12-07T18:07:36;6.00;86.10
24618;DHT22;12762;51.730;5.356;2022-12-07T18:10:04;6.00;86.10
24618;DHT22;12762;51.730;5.356;2022-12-07T18:12:33;6.00;86.10
24618;DHT22;12762;51.730;5.356;2022-12-07T18:14:59;6.10;86.20
24618;DHT22;12762;51.730;5.356;2022-12-07T18:17:27;6.00;86.10
24618;DHT22;12762;51.730;5.356;2022-12-07T18:19:57;6.00;86.30
24618;DHT22;12762;51.730;5.356;2022-12-07T18:22:24;6.00;86.30
24618;DHT22;12762;51.730;5.356;2022-12-07T18:24:50;5.90;86.20
24618;DHT22;12762;51.730;5.356;2022-12-07T18:27:17;5.90;86.20
24618;DHT22;12762;51.730;5.356;2022-12-07T18:29:44;5.90;86.30
24618;DHT22;12762;51.730;5.356;2022-12-07T18:32:11;5.90;86.40